Time,TemperatureF,DewpointF,PressureIn,WindDirection,WindDirectionDegrees,WindSpeedMPH,WindSpeedGustMPH,Humidity,HourlyPrecipIn,Conditions,Clouds,dailyrainin,SoftwareType,DateUTC
2013-02-12 00:00:00,25.5,18.7,29.02,SW,225,0.0,0.0,75,0.00,,,0.22,meteohub,2013-02-12 05:00:00,
2013-02-12 00:05:00,25.5,18.7,29.02,SW,225,0.0,0.0,75,0.00,,,0.00,meteohub,2013-02-12 05:05:00,
2013-02-12 00:10:00,25.3,18.5,29.02,SW,225,0.0,0.0,75,0.00,,,0.00,meteohub,2013-02-12 05:10:00,
2013-02-12 00:15:00,25.2,18.3,29.02,SW,225,0.0,0.0,75,0.00,,,0.00,meteohub,2013-02-12 05:15:00,
2013-02-12 00:20:00,25.0,18.5,29.03,SW,225,0.0,0.0,76,0.00,,,0.00,meteohub,2013-02-12 05:20:00,
2013-02-12 00:25:00,24.8,18.0,29.03,SW,225,0.0,0.0,75,0.00,,,0.00,meteohub,2013-02-12 05:25:00,
2013-02-12 00:30:00,24.6,18.1,29.03,SW,225,0.0,0.0,76,0.00,,,0.00,meteohub,2013-02-12 05:30:00,
2013-02-12 00:35:00,24.4,18.0,29.03,SW,225,0.0,0.0,76,0.00,,,0.00,meteohub,2013-02-12 05:35:00,
2013-02-12 00:40:00,24.3,17.8,29.04,SW,225,0.0,0.0,76,0.00,,,0.00,meteohub,2013-02-12 05:40:00,
2013-02-12 00:45:00,24.3,17.8,29.04,SW,225,0.0,0.0,76,0.00,,,0.00,meteohub,2013-02-12 05:45:00,
2013-02-12 00:50:00,24.1,17.6,29.04,SW,225,0.0,0.0,76,0.00,,,0.00,meteohub,2013-02-12 05:50:00,
2013-02-12 00:55:00,24.1,17.6,29.04,SW,225,0.0,0.0,76,0.00,,,0.00,meteohub,2013-02-12 05:55:00,
2013-02-12 01:00:00,24.1,17.6,29.05,SW,225,0.0,0.0,76,0.00,,,0.00,meteohub,2013-02-12 06:00:00,
2013-02-12 01:05:00,24.1,17.6,29.05,SW,225,0.0,0.0,76,0.00,,,0.00,meteohub,2013-02-12 06:05:00,
2013-02-12 01:10:00,24.1,17.6,29.05,SW,225,0.0,0.0,76,0.00,,,0.00,meteohub,2013-02-12 06:10:00,
2013-02-12 01:15:00,24.1,17.6,29.05,SW,225,0.0,0.0,76,0.00,,,0.00,meteohub,2013-02-12 06:15:00,
2013-02-12 01:20:00,24.1,17.6,29.05,SW,225,0.0,0.0,76,0.00,,,0.00,meteohub,2013-02-12 06:20:00,
2013-02-12 01:25:00,24.1,17.6,29.05,SW,225,0.0,0.0,76,0.00,,,0.00,meteohub,2013-02-12 06:25:00,
2013-02-12 01:30:00,24.1,17.6,29.05,SW,225,0.0,0.0,76,0.00,,,0.00,meteohub,2013-02-12 06:30:00,
2013-02-12 01:36:00,24.1,17.6,29.06,SW,225,0.0,0.0,76,0.00,,,0.00,meteohub,2013-02-12 06:36:00,
2013-02-12 01:41:00,24.1,17.6,29.06,SW,225,0.0,0.0,76,0.00,,,0.00,meteohub,2013-02-12 06:41:00,
2013-02-12 01:46:00,24.1,17.6,29.06,SW,225,0.0,0.0,76,0.00,,,0.00,meteohub,2013-02-12 06:46:00,
2013-02-12 01:51:00,24.1,17.6,29.06,SW,225,0.0,0.0,76,0.00,,,0.00,meteohub,2013-02-12 06:51:00,
2013-02-12 01:56:00,24.1,17.6,29.06,SW,225,0.0,0.0,76,0.00,,,0.00,meteohub,2013-02-12 06:56:00,
2013-02-12 02:01:00,24.1,17.6,29.06,SW,225,0.0,0.0,76,0.00,,,0.00,meteohub,2013-02-12 07:01:00,
2013-02-12 02:06:00,24.1,17.6,29.06,SW,225,0.0,0.0,76,0.00,,,0.00,meteohub,2013-02-12 07:06:00,
2013-02-12 02:11:00,24.1,17.6,29.06,SW,225,0.0,0.0,76,0.00,,,0.00,meteohub,2013-02-12 07:11:00,
2013-02-12 02:16:00,24.1,17.6,29.06,SW,225,0.0,0.0,76,0.00,,,0.00,meteohub,2013-02-12 07:16:00,
2013-02-12 02:21:00,24.1,17.6,29.07,SW,225,0.0,0.0,76,0.00,,,0.00,meteohub,2013-02-12 07:21:00,
2013-02-12 02:26:00,24.1,17.6,29.07,SW,225,0.0,0.0,76,0.00,,,0.00,meteohub,2013-02-12 07:26:00,
2013-02-12 02:31:00,24.1,17.6,29.07,SW,225,0.0,0.0,76,0.00,,,0.00,meteohub,2013-02-12 07:31:00,
2013-02-12 02:36:00,24.1,17.6,29.08,SW,225,0.0,0.0,76,0.00,,,0.00,meteohub,2013-02-12 07:36:00,
2013-02-12 02:41:00,24.1,17.6,29.08,SW,225,0.0,0.0,76,0.00,,,0.00,meteohub,2013-02-12 07:41:00,
2013-02-12 02:46:00,24.1,17.6,29.08,SW,225,0.0,0.0,76,0.00,,,0.00,meteohub,2013-02-12 07:46:00,
2013-02-12 02:51:00,24.1,17.6,29.08,SW,225,0.0,0.0,76,0.00,,,0.00,meteohub,2013-02-12 07:51:00,
2013-02-12 02:56:00,24.1,18.0,29.08,SW,225,0.0,0.0,77,0.00,,,0.00,meteohub,2013-02-12 07:56:00,
2013-02-12 03:01:00,24.1,18.0,29.08,SW,225,0.0,0.0,77,0.00,,,0.00,meteohub,2013-02-12 08:01:00,
2013-02-12 03:06:00,24.1,18.0,29.08,SW,225,0.0,0.0,77,0.00,,,0.00,meteohub,2013-02-12 08:06:00,
2013-02-12 03:11:00,24.1,18.0,29.08,SW,225,0.0,0.0,77,0.00,,,0.00,meteohub,2013-02-12 08:11:00,
2013-02-12 03:16:00,24.1,18.0,29.09,SW,225,0.0,0.0,77,0.00,,,0.00,meteohub,2013-02-12 08:16:00,
2013-02-12 03:21:00,24.1,18.0,29.09,SW,225,0.0,0.0,77,0.00,,,0.00,meteohub,2013-02-12 08:21:00,
2013-02-12 03:26:00,24.1,18.0,29.09,SW,225,0.0,0.0,77,0.00,,,0.00,meteohub,2013-02-12 08:26:00,
2013-02-12 03:31:00,24.1,18.0,29.09,SW,225,0.0,0.0,77,0.00,,,0.00,meteohub,2013-02-12 08:31:00,
2013-02-12 03:36:00,24.1,18.0,29.10,SW,225,0.0,0.0,77,0.00,,,0.00,meteohub,2013-02-12 08:36:00,
2013-02-12 03:41:00,24.1,18.0,29.10,SW,225,0.0,0.0,77,0.00,,,0.00,meteohub,2013-02-12 08:41:00,
2013-02-12 03:46:00,24.1,18.0,29.10,SW,225,0.0,0.0,77,0.00,,,0.00,meteohub,2013-02-12 08:46:00,
2013-02-12 03:51:00,24.1,18.0,29.10,SW,225,0.0,0.0,77,0.00,,,0.00,meteohub,2013-02-12 08:51:00,
2013-02-12 03:56:00,24.1,18.0,29.10,SW,225,0.0,0.0,77,0.00,,,0.00,meteohub,2013-02-12 08:56:00,
2013-02-12 04:01:00,24.1,18.0,29.10,SW,225,0.0,0.0,77,0.00,,,0.00,meteohub,2013-02-12 09:01:00,
2013-02-12 04:06:00,24.1,18.0,29.10,SW,225,0.0,0.0,77,0.00,,,0.00,meteohub,2013-02-12 09:06:00,
2013-02-12 04:11:00,24.1,18.0,29.10,SW,225,0.0,0.0,77,0.00,,,0.00,meteohub,2013-02-12 09:11:00,
2013-02-12 04:16:00,24.1,18.0,29.09,SW,225,0.0,0.0,77,0.00,,,0.00,meteohub,2013-02-12 09:16:00,
2013-02-12 04:21:00,24.1,18.0,29.09,SW,225,0.0,0.0,77,0.00,,,0.00,meteohub,2013-02-12 09:21:00,
2013-02-12 04:26:00,24.1,18.0,29.09,SW,225,0.0,0.0,77,0.00,,,0.00,meteohub,2013-02-12 09:26:00,
2013-02-12 04:31:00,24.1,18.0,29.09,SW,225,0.0,0.0,77,0.00,,,0.00,meteohub,2013-02-12 09:31:00,
2013-02-12 04:36:00,24.1,18.0,29.10,SW,225,0.0,0.0,77,0.00,,,0.00,meteohub,2013-02-12 09:36:00,
2013-02-12 04:41:00,24.1,18.0,29.10,SW,225,0.0,0.0,77,0.00,,,0.00,meteohub,2013-02-12 09:41:00,
2013-02-12 04:46:00,24.1,18.0,29.10,SW,225,0.0,0.0,77,0.00,,,0.00,meteohub,2013-02-12 09:46:00,
2013-02-12 04:51:00,24.1,18.0,29.10,SW,225,0.0,0.0,77,0.00,,,0.00,meteohub,2013-02-12 09:51:00,
2013-02-12 04:56:00,24.1,18.0,29.10,SW,225,0.0,0.0,77,0.00,,,0.00,meteohub,2013-02-12 09:56:00,
2013-02-12 05:01:00,24.1,18.0,29.10,SW,225,0.0,0.0,77,0.00,,,0.00,meteohub,2013-02-12 10:01:00,
2013-02-12 05:07:00,24.1,18.0,29.10,SW,225,0.0,0.0,77,0.00,,,0.00,meteohub,2013-02-12 10:07:00,
2013-02-12 05:12:00,24.1,18.0,29.10,SW,225,0.0,0.0,77,0.00,,,0.00,meteohub,2013-02-12 10:12:00,
2013-02-12 05:17:00,24.3,18.1,29.10,SW,225,0.0,0.0,77,0.00,,,0.00,meteohub,2013-02-12 10:17:00,
2013-02-12 05:22:00,24.3,18.1,29.10,SW,225,0.0,0.0,77,0.00,,,0.00,meteohub,2013-02-12 10:22:00,
2013-02-12 05:27:00,24.3,18.1,29.10,SW,225,0.0,0.0,77,0.00,,,0.00,meteohub,2013-02-12 10:27:00,
2013-02-12 05:32:00,24.3,18.1,29.10,SW,225,0.0,0.0,77,0.00,,,0.00,meteohub,2013-02-12 10:32:00,
2013-02-12 05:37:00,24.3,18.1,29.11,SW,225,0.0,0.0,77,0.00,,,0.00,meteohub,2013-02-12 10:37:00,
2013-02-12 05:42:00,24.3,18.1,29.11,SW,225,0.0,0.0,77,0.00,,,0.00,meteohub,2013-02-12 10:42:00,
2013-02-12 05:47:00,24.4,18.3,29.11,SW,225,0.0,0.0,77,0.00,,,0.00,meteohub,2013-02-12 10:47:00,
2013-02-12 05:52:00,24.4,18.3,29.11,SW,225,0.0,0.0,77,0.00,,,0.00,meteohub,2013-02-12 10:52:00,
2013-02-12 05:57:00,24.4,18.3,29.12,SW,225,0.0,0.0,77,0.00,,,0.00,meteohub,2013-02-12 10:57:00,
2013-02-12 06:02:00,24.6,18.5,29.12,SW,225,0.0,0.0,77,0.00,,,0.00,meteohub,2013-02-12 11:02:00,
2013-02-12 06:07:00,24.6,18.5,29.12,SW,225,0.0,0.0,77,0.00,,,0.00,meteohub,2013-02-12 11:07:00,
2013-02-12 06:12:00,24.6,18.5,29.12,SW,225,0.0,0.0,77,0.00,,,0.00,meteohub,2013-02-12 11:12:00,
2013-02-12 06:17:00,24.6,18.5,29.13,SW,225,0.0,0.0,77,0.00,,,0.00,meteohub,2013-02-12 11:17:00,
2013-02-12 06:22:00,24.6,18.5,29.13,SW,225,0.0,0.0,77,0.00,,,0.00,meteohub,2013-02-12 11:22:00,
2013-02-12 06:27:00,24.6,18.5,29.13,SW,225,0.0,0.0,77,0.00,,,0.00,meteohub,2013-02-12 11:27:00,
2013-02-12 06:32:00,24.6,18.5,29.13,SW,225,0.0,0.0,77,0.00,,,0.00,meteohub,2013-02-12 11:32:00,
2013-02-12 06:37:00,24.8,18.7,29.13,SW,225,0.0,0.0,77,0.00,,,0.00,meteohub,2013-02-12 11:37:00,
2013-02-12 06:42:00,24.8,18.7,29.13,SW,225,0.0,0.0,77,0.00,,,0.00,meteohub,2013-02-12 11:42:00,
2013-02-12 06:47:00,24.8,18.7,29.13,SW,225,0.0,0.0,77,0.00,,,0.00,meteohub,2013-02-12 11:47:00,
2013-02-12 06:52:00,24.8,18.7,29.13,SW,225,0.0,0.0,77,0.00,,,0.00,meteohub,2013-02-12 11:52:00,
2013-02-12 06:57:00,24.8,18.7,29.14,SW,225,0.0,0.0,77,0.00,,,0.00,meteohub,2013-02-12 11:57:00,
2013-02-12 07:02:00,24.8,18.7,29.14,SW,225,0.0,0.0,77,0.00,,,0.00,meteohub,2013-02-12 12:02:00,
2013-02-12 07:07:00,24.8,18.7,29.14,SW,225,0.0,0.0,77,0.00,,,0.00,meteohub,2013-02-12 12:07:00,
2013-02-12 07:12:00,24.8,18.7,29.14,SW,225,0.0,0.0,77,0.00,,,0.00,meteohub,2013-02-12 12:12:00,
2013-02-12 07:17:00,24.8,18.7,29.15,SW,225,0.0,0.0,77,0.00,,,0.00,meteohub,2013-02-12 12:17:00,
2013-02-12 07:22:00,24.8,18.7,29.15,SW,225,0.0,0.0,77,0.00,,,0.00,meteohub,2013-02-12 12:22:00,
2013-02-12 07:27:00,24.8,18.7,29.15,SW,225,0.0,0.0,77,0.00,,,0.00,meteohub,2013-02-12 12:27:00,
2013-02-12 07:32:00,24.8,18.7,29.15,SW,225,0.0,0.0,77,0.00,,,0.00,meteohub,2013-02-12 12:32:00,
2013-02-12 07:37:00,24.8,18.7,29.16,SW,225,0.0,0.0,77,0.00,,,0.00,meteohub,2013-02-12 12:37:00,
2013-02-12 07:42:00,24.8,18.7,29.16,SW,225,0.0,0.0,77,0.00,,,0.00,meteohub,2013-02-12 12:42:00,
2013-02-12 07:47:00,24.8,18.7,29.16,SW,225,0.0,0.0,77,0.00,,,0.00,meteohub,2013-02-12 12:47:00,
2013-02-12 07:52:00,24.8,18.7,29.16,SW,225,0.0,0.0,77,0.00,,,0.00,meteohub,2013-02-12 12:52:00,
2013-02-12 07:57:00,24.8,18.7,29.16,SW,225,0.0,0.0,77,0.00,,,0.00,meteohub,2013-02-12 12:57:00,
2013-02-12 08:02:00,24.8,18.7,29.16,SW,225,0.0,0.0,77,0.00,,,0.00,meteohub,2013-02-12 13:02:00,
2013-02-12 08:07:00,24.8,18.3,29.16,SW,225,0.0,0.0,76,0.00,,,0.00,meteohub,2013-02-12 13:07:00,
2013-02-12 08:12:00,24.8,18.3,29.16,SW,225,0.0,0.0,76,0.00,,,0.00,meteohub,2013-02-12 13:12:00,
2013-02-12 08:17:00,24.8,18.3,29.16,SW,225,0.0,0.0,76,0.00,,,0.00,meteohub,2013-02-12 13:17:00,
2013-02-12 08:22:00,24.8,18.3,29.16,SW,225,0.0,0.0,76,0.00,,,0.00,meteohub,2013-02-12 13:22:00,
2013-02-12 08:27:00,24.8,18.3,29.16,SW,225,0.0,0.0,76,0.00,,,0.00,meteohub,2013-02-12 13:27:00,
2013-02-12 08:32:00,24.8,18.3,29.16,SW,225,0.0,0.0,76,0.00,,,0.00,meteohub,2013-02-12 13:32:00,
2013-02-12 08:37:00,24.8,18.3,29.17,SW,225,0.0,0.0,76,0.00,,,0.00,meteohub,2013-02-12 13:37:00,
2013-02-12 08:42:00,25.0,18.5,29.17,SW,225,0.0,0.0,76,0.00,,,0.00,meteohub,2013-02-12 13:42:00,
2013-02-12 08:47:00,25.0,18.5,29.17,SW,225,0.0,0.0,76,0.00,,,0.00,meteohub,2013-02-12 13:47:00,
2013-02-12 08:52:00,25.0,18.5,29.17,SW,225,0.0,0.0,76,0.00,,,0.00,meteohub,2013-02-12 13:52:00,
2013-02-12 08:57:00,25.0,18.5,29.18,SW,225,0.0,0.0,76,0.00,,,0.00,meteohub,2013-02-12 13:57:00,
2013-02-12 09:02:00,25.0,18.5,29.18,SW,225,0.0,0.0,76,0.00,,,0.00,meteohub,2013-02-12 14:02:00,
2013-02-12 09:07:00,25.0,18.5,29.18,SW,225,0.0,0.0,76,0.00,,,0.00,meteohub,2013-02-12 14:07:00,
2013-02-12 09:12:00,25.2,18.7,29.18,SW,225,0.0,0.0,76,0.00,,,0.00,meteohub,2013-02-12 14:12:00,
2013-02-12 09:17:00,25.2,18.7,29.19,SW,225,0.0,0.0,76,0.00,,,0.00,meteohub,2013-02-12 14:17:00,
2013-02-12 09:22:00,25.2,18.7,29.19,SW,225,0.0,0.0,76,0.00,,,0.00,meteohub,2013-02-12 14:22:00,
2013-02-12 09:27:00,25.3,18.9,29.19,SW,225,0.0,0.0,76,0.00,,,0.00,meteohub,2013-02-12 14:27:00,
2013-02-12 09:32:00,25.3,18.9,29.19,SW,225,0.0,0.0,76,0.00,,,0.00,meteohub,2013-02-12 14:32:00,
2013-02-12 09:37:00,25.3,18.9,29.20,SW,225,0.0,0.0,76,0.00,,,0.00,meteohub,2013-02-12 14:37:00,
2013-02-12 09:42:00,25.3,18.9,29.20,SW,225,0.0,0.0,76,0.00,,,0.00,meteohub,2013-02-12 14:42:00,
2013-02-12 09:47:00,25.5,19.0,29.20,SW,225,0.0,0.0,76,0.00,,,0.00,meteohub,2013-02-12 14:47:00,
2013-02-12 09:52:00,25.5,19.0,29.20,SW,225,0.0,0.0,76,0.00,,,0.00,meteohub,2013-02-12 14:52:00,
2013-02-12 09:57:00,25.5,19.0,29.20,SW,225,0.0,0.0,76,0.00,,,0.00,meteohub,2013-02-12 14:57:00,
2013-02-12 10:02:00,25.5,19.0,29.20,SW,225,0.0,0.0,76,0.00,,,0.00,meteohub,2013-02-12 15:02:00,
2013-02-12 10:08:00,25.5,19.0,29.20,SW,225,0.0,0.0,76,0.00,,,0.00,meteohub,2013-02-12 15:08:00,
2013-02-12 10:13:00,25.7,19.2,29.20,SW,225,0.0,0.0,76,0.00,,,0.00,meteohub,2013-02-12 15:13:00,
2013-02-12 10:18:00,25.9,19.4,29.20,SW,225,0.0,0.0,76,0.00,,,0.00,meteohub,2013-02-12 15:18:00,
2013-02-12 10:23:00,25.9,19.4,29.20,SW,225,0.0,0.0,76,0.00,,,0.00,meteohub,2013-02-12 15:23:00,
2013-02-12 10:28:00,26.2,19.8,29.20,SW,225,0.0,0.0,76,0.00,,,0.00,meteohub,2013-02-12 15:28:00,
2013-02-12 10:33:00,26.2,19.8,29.20,SW,225,0.0,0.0,76,0.00,,,0.00,meteohub,2013-02-12 15:33:00,
2013-02-12 10:38:00,26.2,19.8,29.20,WNW,293,0.0,0.0,76,0.00,,,0.00,meteohub,2013-02-12 15:38:00,
2013-02-12 10:43:00,26.2,19.8,29.20,WNW,293,0.0,0.0,76,0.00,,,0.00,meteohub,2013-02-12 15:43:00,
2013-02-12 10:48:00,26.2,19.8,29.20,NNE,23,0.0,0.0,76,0.00,,,0.00,meteohub,2013-02-12 15:48:00,
2013-02-12 10:53:00,26.2,19.8,29.20,West,270,0.0,0.0,76,0.00,,,0.00,meteohub,2013-02-12 15:53:00,
2013-02-12 10:58:00,26.1,19.8,29.19,WNW,293,0.0,0.0,77,0.00,,,0.00,meteohub,2013-02-12 15:58:00,
2013-02-12 11:03:00,26.1,19.8,29.19,SW,225,0.0,0.0,77,0.00,,,0.00,meteohub,2013-02-12 16:03:00,
2013-02-12 11:08:00,26.2,19.9,29.19,SSE,158,0.0,0.0,77,0.00,,,0.00,meteohub,2013-02-12 16:08:00,
2013-02-12 11:13:00,25.9,19.8,29.19,West,270,0.0,0.0,77,0.00,,,0.00,meteohub,2013-02-12 16:13:00,
2013-02-12 11:18:00,25.9,19.8,29.19,North,0,0.0,0.0,77,0.00,,,0.00,meteohub,2013-02-12 16:18:00,
2013-02-12 11:23:00,26.1,19.8,29.19,ESE,113,0.0,0.0,77,0.00,,,0.00,meteohub,2013-02-12 16:23:00,
2013-02-12 11:28:00,26.1,19.8,29.19,SSW,203,0.0,0.0,77,0.00,,,0.00,meteohub,2013-02-12 16:28:00,
2013-02-12 11:33:00,25.9,19.8,29.19,SW,225,0.0,0.0,77,0.00,,,0.00,meteohub,2013-02-12 16:33:00,
2013-02-12 11:38:00,25.9,19.8,29.19,SW,225,0.0,0.0,77,0.00,,,0.00,meteohub,2013-02-12 16:38:00,
2013-02-12 11:43:00,25.9,19.8,29.19,WSW,248,0.0,0.0,77,0.00,,,0.00,meteohub,2013-02-12 16:43:00,
2013-02-12 11:48:00,25.7,19.6,29.19,WNW,293,0.0,0.0,77,0.00,,,0.00,meteohub,2013-02-12 16:48:00,
2013-02-12 11:53:00,25.5,19.4,29.19,West,270,0.0,0.0,77,0.00,,,0.00,meteohub,2013-02-12 16:53:00,
2013-02-12 11:58:00,25.5,19.4,29.19,WSW,248,0.0,0.0,77,0.00,,,0.00,meteohub,2013-02-12 16:58:00,
2013-02-12 12:03:00,25.5,19.4,29.19,SW,225,0.0,0.0,77,0.00,,,0.00,meteohub,2013-02-12 17:03:00,
2013-02-12 12:08:00,25.5,19.4,29.19,West,270,0.0,0.0,77,0.00,,,0.00,meteohub,2013-02-12 17:08:00,
2013-02-12 12:13:00,25.5,19.4,29.19,SW,225,0.0,0.0,77,0.00,,,0.00,meteohub,2013-02-12 17:13:00,
2013-02-12 12:18:00,25.5,19.4,29.19,SW,225,0.0,0.0,77,0.00,,,0.00,meteohub,2013-02-12 17:18:00,
2013-02-12 12:23:00,25.7,19.6,29.19,WNW,293,0.0,0.0,77,0.00,,,0.00,meteohub,2013-02-12 17:23:00,
2013-02-12 12:28:00,25.9,19.8,29.19,WSW,248,0.0,0.0,77,0.00,,,0.00,meteohub,2013-02-12 17:28:00,
2013-02-12 12:33:00,25.9,19.8,29.19,SSW,203,0.0,0.0,77,0.00,,,0.00,meteohub,2013-02-12 17:33:00,
2013-02-12 12:38:00,26.1,19.8,29.18,NE,45,0.0,0.0,77,0.00,,,0.00,meteohub,2013-02-12 17:38:00,
2013-02-12 12:43:00,26.2,19.9,29.18,South,180,0.0,0.0,77,0.00,,,0.00,meteohub,2013-02-12 17:43:00,
2013-02-12 12:48:00,26.2,19.9,29.18,South,180,0.0,0.0,77,0.00,,,0.00,meteohub,2013-02-12 17:48:00,
2013-02-12 12:53:00,26.2,19.9,29.18,SW,225,0.0,0.0,77,0.00,,,0.00,meteohub,2013-02-12 17:53:00,
2013-02-12 12:58:00,26.2,19.9,29.18,WSW,248,0.0,0.0,77,0.00,,,0.00,meteohub,2013-02-12 17:58:00,
2013-02-12 13:03:00,26.2,19.9,29.18,SW,225,0.0,0.0,77,0.00,,,0.00,meteohub,2013-02-12 18:03:00,
2013-02-12 13:08:00,26.2,19.9,29.18,West,270,0.0,0.0,77,0.00,,,0.00,meteohub,2013-02-12 18:08:00,
2013-02-12 13:14:00,26.2,19.9,29.18,SW,225,0.0,0.0,77,0.00,,,0.00,meteohub,2013-02-12 18:14:00,
2013-02-12 13:19:00,26.2,19.9,29.18,SSW,203,0.0,0.0,77,0.00,,,0.00,meteohub,2013-02-12 18:19:00,
2013-02-12 13:24:00,26.2,20.3,29.18,SW,225,0.0,0.0,78,0.00,,,0.00,meteohub,2013-02-12 18:24:00,
2013-02-12 13:29:00,26.2,20.3,29.18,South,180,0.0,0.0,78,0.00,,,0.00,meteohub,2013-02-12 18:29:00,
2013-02-12 13:34:00,26.2,20.3,29.18,South,180,0.0,0.0,78,0.00,,,0.00,meteohub,2013-02-12 18:34:00,
2013-02-12 13:39:00,26.4,20.1,29.17,WSW,248,0.0,0.0,77,0.00,,,0.00,meteohub,2013-02-12 18:39:00,
2013-02-12 13:44:00,26.6,20.3,29.17,WSW,248,0.0,0.0,77,0.00,,,0.00,meteohub,2013-02-12 18:44:00,
2013-02-12 13:49:00,26.6,20.3,29.17,SW,225,0.0,0.0,77,0.00,,,0.00,meteohub,2013-02-12 18:49:00,
2013-02-12 13:54:00,26.6,20.3,29.17,WSW,248,0.0,0.0,77,0.00,,,0.00,meteohub,2013-02-12 18:54:00,
2013-02-12 13:59:00,26.6,20.3,29.16,SW,225,0.0,0.0,77,0.00,,,0.00,meteohub,2013-02-12 18:59:00,
2013-02-12 14:04:00,26.4,20.5,29.16,SW,225,0.0,0.0,78,0.00,,,0.00,meteohub,2013-02-12 19:04:00,
2013-02-12 14:09:00,26.4,20.5,29.16,SW,225,0.0,0.0,78,0.00,,,0.00,meteohub,2013-02-12 19:09:00,
2013-02-12 14:14:00,26.6,20.7,29.16,North,0,0.0,0.0,78,0.00,,,0.00,meteohub,2013-02-12 19:14:00,
2013-02-12 14:19:00,26.4,20.5,29.15,WSW,248,0.0,0.0,78,0.00,,,0.00,meteohub,2013-02-12 19:19:00,
2013-02-12 14:24:00,26.4,20.5,29.15,SW,225,0.0,0.0,78,0.00,,,0.00,meteohub,2013-02-12 19:24:00,
2013-02-12 14:29:00,26.4,20.5,29.15,West,270,0.0,0.0,78,0.00,,,0.00,meteohub,2013-02-12 19:29:00,
2013-02-12 14:34:00,26.2,20.3,29.15,WNW,293,0.0,0.0,78,0.00,,,0.00,meteohub,2013-02-12 19:34:00,
2013-02-12 14:39:00,26.2,20.3,29.15,SW,225,0.0,0.0,78,0.00,,,0.00,meteohub,2013-02-12 19:39:00,
2013-02-12 14:44:00,26.2,20.3,29.15,SW,225,0.0,0.0,78,0.00,,,0.00,meteohub,2013-02-12 19:44:00,
2013-02-12 14:49:00,26.2,20.3,29.15,SSW,203,0.0,0.0,78,0.00,,,0.00,meteohub,2013-02-12 19:49:00,
2013-02-12 14:54:00,26.2,20.3,29.15,SW,225,0.0,0.0,78,0.00,,,0.00,meteohub,2013-02-12 19:54:00,
2013-02-12 14:59:00,26.2,20.3,29.14,WSW,248,0.0,0.0,78,0.00,,,0.00,meteohub,2013-02-12 19:59:00,
2013-02-12 15:04:00,26.2,20.3,29.14,SSW,203,0.0,0.0,78,0.00,,,0.00,meteohub,2013-02-12 20:04:00,
2013-02-12 15:09:00,26.1,20.1,29.14,SSW,203,0.0,0.0,78,0.00,,,0.00,meteohub,2013-02-12 20:09:00,
2013-02-12 15:14:00,25.9,19.9,29.14,West,270,0.0,0.0,78,0.00,,,0.00,meteohub,2013-02-12 20:14:00,
2013-02-12 15:19:00,26.2,20.3,29.14,SSW,203,0.0,0.0,78,0.00,,,0.00,meteohub,2013-02-12 20:19:00,
2013-02-12 15:24:00,26.2,20.3,29.14,SW,225,0.0,0.0,78,0.00,,,0.00,meteohub,2013-02-12 20:24:00,
2013-02-12 15:29:00,26.2,20.3,29.14,SSE,158,0.0,0.0,78,0.00,,,0.00,meteohub,2013-02-12 20:29:00,
2013-02-12 15:34:00,26.2,20.3,29.14,WNW,293,0.0,0.0,78,0.00,,,0.00,meteohub,2013-02-12 20:34:00,
2013-02-12 15:39:00,26.2,20.3,29.13,SSW,203,0.0,0.0,78,0.00,,,0.00,meteohub,2013-02-12 20:39:00,
2013-02-12 15:44:00,26.2,20.3,29.13,NW,315,0.0,0.0,78,0.00,,,0.00,meteohub,2013-02-12 20:44:00,
2013-02-12 15:49:00,26.2,20.3,29.13,SSW,203,0.0,0.0,78,0.00,,,0.00,meteohub,2013-02-12 20:49:00,
2013-02-12 15:54:00,26.2,20.3,29.13,SSW,203,0.0,0.0,78,0.00,,,0.00,meteohub,2013-02-12 20:54:00,
2013-02-12 15:59:00,26.2,20.3,29.13,SE,135,0.0,0.0,78,0.00,,,0.00,meteohub,2013-02-12 20:59:00,
2013-02-12 16:04:00,26.2,20.3,29.13,SW,225,0.0,0.0,78,0.00,,,0.00,meteohub,2013-02-12 21:04:00,
2013-02-12 16:09:00,26.1,20.1,29.13,SW,225,0.0,0.0,78,0.00,,,0.00,meteohub,2013-02-12 21:09:00,
2013-02-12 16:14:00,26.1,20.1,29.13,SW,225,0.0,0.0,78,0.00,,,0.00,meteohub,2013-02-12 21:14:00,
2013-02-12 16:19:00,26.1,20.1,29.12,East,90,0.0,0.0,78,0.00,,,0.00,meteohub,2013-02-12 21:19:00,
2013-02-12 16:24:00,25.9,19.9,29.12,SSE,158,0.0,0.0,78,0.00,,,0.00,meteohub,2013-02-12 21:24:00,
2013-02-12 16:29:00,25.9,19.9,29.12,SW,225,0.0,0.0,78,0.00,,,0.00,meteohub,2013-02-12 21:29:00,
2013-02-12 16:34:00,25.9,19.9,29.12,SW,225,0.0,0.0,78,0.00,,,0.00,meteohub,2013-02-12 21:34:00,
2013-02-12 16:39:00,25.9,20.3,29.12,South,180,0.0,0.0,79,0.00,,,0.00,meteohub,2013-02-12 21:39:00,
2013-02-12 16:44:00,25.9,20.3,29.12,South,180,0.0,0.0,79,0.00,,,0.00,meteohub,2013-02-12 21:44:00,
2013-02-12 16:49:00,25.9,20.3,29.12,South,180,0.0,0.0,79,0.00,,,0.00,meteohub,2013-02-12 21:49:00,
2013-02-12 16:54:00,25.9,20.3,29.12,South,180,0.0,0.0,79,0.00,,,0.00,meteohub,2013-02-12 21:54:00,
2013-02-12 16:59:00,25.7,19.8,29.12,SW,225,0.0,0.0,78,0.00,,,0.00,meteohub,2013-02-12 21:59:00,
2013-02-12 17:04:00,25.9,19.9,29.12,SSE,158,0.0,0.0,78,0.00,,,0.00,meteohub,2013-02-12 22:04:00,
2013-02-12 17:09:00,25.9,19.9,29.12,SW,225,0.0,0.0,78,0.00,,,0.00,meteohub,2013-02-12 22:09:00,
2013-02-12 17:15:00,25.7,20.1,29.12,SSW,203,0.0,0.0,79,0.00,,,0.00,meteohub,2013-02-12 22:15:00,
2013-02-12 17:20:00,25.9,20.3,29.13,SSE,158,0.0,0.0,79,0.00,,,0.00,meteohub,2013-02-12 22:20:00,
2013-02-12 17:25:00,25.9,19.9,29.13,SW,225,0.0,0.0,78,0.00,,,0.00,meteohub,2013-02-12 22:25:00,
2013-02-12 17:30:00,25.9,19.9,29.13,South,180,0.0,0.0,78,0.00,,,0.00,meteohub,2013-02-12 22:30:00,
2013-02-12 17:35:00,25.9,20.3,29.13,SSW,203,0.0,0.0,79,0.00,,,0.00,meteohub,2013-02-12 22:35:00,
2013-02-12 17:40:00,25.9,20.3,29.13,SSE,158,0.0,0.0,79,0.00,,,0.00,meteohub,2013-02-12 22:40:00,
2013-02-12 17:45:00,25.9,20.3,29.13,South,180,0.0,0.0,79,0.00,,,0.00,meteohub,2013-02-12 22:45:00,
2013-02-12 17:50:00,25.9,20.3,29.13,SSW,203,0.0,0.0,79,0.00,,,0.00,meteohub,2013-02-12 22:50:00,
2013-02-12 17:55:00,25.9,20.3,29.13,SW,225,0.0,0.0,79,0.00,,,0.00,meteohub,2013-02-12 22:55:00,
2013-02-12 18:00:00,26.1,20.5,29.13,SSE,158,0.0,0.0,79,0.00,,,0.00,meteohub,2013-02-12 23:00:00,
2013-02-12 18:05:00,26.1,20.5,29.13,SSE,158,0.0,0.0,79,0.00,,,0.00,meteohub,2013-02-12 23:05:00,
2013-02-12 18:10:00,26.1,20.7,29.13,SSW,203,0.0,0.0,80,0.00,,,0.00,meteohub,2013-02-12 23:10:00,
2013-02-12 18:15:00,25.9,20.8,29.13,SSW,203,0.0,0.0,81,0.00,,,0.00,meteohub,2013-02-12 23:15:00,
2013-02-12 18:20:00,25.9,20.8,29.14,SSW,203,0.0,0.0,81,0.00,,,0.00,meteohub,2013-02-12 23:20:00,
2013-02-12 18:25:00,25.9,20.8,29.14,SSW,203,0.0,0.0,81,0.00,,,0.00,meteohub,2013-02-12 23:25:00,
2013-02-12 18:30:00,25.7,20.7,29.14,SSW,203,0.0,0.0,81,0.00,,,0.00,meteohub,2013-02-12 23:30:00,
2013-02-12 18:35:00,25.5,20.5,29.14,SW,225,0.0,0.0,81,0.00,,,0.00,meteohub,2013-02-12 23:35:00,
2013-02-12 18:40:00,25.3,20.3,29.15,SW,225,0.0,0.0,81,0.00,,,0.00,meteohub,2013-02-12 23:40:00,
2013-02-12 18:45:00,25.2,20.1,29.15,South,180,0.0,0.0,81,0.00,,,0.00,meteohub,2013-02-12 23:45:00,
2013-02-12 18:50:00,25.2,20.1,29.15,SW,225,0.0,0.0,81,0.00,,,0.00,meteohub,2013-02-12 23:50:00,
2013-02-12 18:55:00,25.0,19.9,29.15,SSW,203,0.0,0.0,81,0.00,,,0.00,meteohub,2013-02-12 23:55:00,
2013-02-12 19:00:00,24.8,19.8,29.15,South,180,0.0,0.0,81,0.00,,,0.00,meteohub,2013-02-13 00:00:00,
2013-02-12 19:05:00,24.8,19.8,29.15,SW,225,0.0,0.0,81,0.00,,,0.00,meteohub,2013-02-13 00:05:00,
2013-02-12 19:10:00,24.8,19.8,29.15,SSE,158,0.0,0.0,81,0.00,,,0.00,meteohub,2013-02-13 00:10:00,
2013-02-12 19:15:00,24.8,19.8,29.15,SSW,203,0.0,0.0,81,0.00,,,0.00,meteohub,2013-02-13 00:15:00,
2013-02-12 19:20:00,24.8,20.1,29.13,South,180,0.0,0.0,82,0.00,,,0.00,meteohub,2013-02-13 00:20:00,
2013-02-12 19:25:00,24.8,20.1,29.13,WSW,248,0.0,0.0,82,0.00,,,0.00,meteohub,2013-02-13 00:25:00,
2013-02-12 19:31:00,24.8,20.1,29.13,SSW,203,0.0,0.0,82,0.00,,,0.00,meteohub,2013-02-13 00:31:00,
2013-02-12 19:36:00,24.8,20.3,29.13,SSW,203,0.0,0.0,83,0.00,,,0.00,meteohub,2013-02-13 00:36:00,
2013-02-12 19:41:00,24.8,20.3,29.13,SSE,158,0.0,0.0,83,0.00,,,0.00,meteohub,2013-02-13 00:41:00,
2013-02-12 19:46:00,24.8,20.3,29.13,SSW,203,0.0,0.0,83,0.00,,,0.00,meteohub,2013-02-13 00:46:00,
2013-02-12 19:51:00,25.0,20.8,29.13,SE,135,0.0,0.0,84,0.00,,,0.00,meteohub,2013-02-13 00:51:00,
2013-02-12 19:56:00,25.0,20.8,29.13,SW,225,0.0,0.0,84,0.00,,,0.00,meteohub,2013-02-13 00:56:00,
2013-02-12 20:01:00,24.8,20.7,29.12,SSW,203,0.0,0.0,84,0.00,,,0.00,meteohub,2013-02-13 01:01:00,
2013-02-12 20:06:00,24.8,20.7,29.12,SE,135,0.0,0.0,84,0.00,,,0.00,meteohub,2013-02-13 01:06:00,
2013-02-12 20:11:00,25.0,20.8,29.12,SSW,203,0.0,0.0,84,0.00,,,0.00,meteohub,2013-02-13 01:11:00,
2013-02-12 20:16:00,25.0,20.8,29.13,WSW,248,0.0,0.0,84,0.00,,,0.00,meteohub,2013-02-13 01:16:00,
2013-02-12 20:21:00,24.8,20.7,29.13,SSE,158,0.0,0.0,84,0.00,,,0.00,meteohub,2013-02-13 01:21:00,
2013-02-12 20:26:00,25.0,20.8,29.13,SSW,203,0.0,0.0,84,0.00,,,0.00,meteohub,2013-02-13 01:26:00,
2013-02-12 20:31:00,25.0,20.8,29.13,SW,225,0.0,0.0,84,0.00,,,0.00,meteohub,2013-02-13 01:31:00,
2013-02-12 20:36:00,25.0,20.8,29.12,SSW,203,0.0,0.0,84,0.00,,,0.00,meteohub,2013-02-13 01:36:00,
2013-02-12 20:41:00,25.0,20.8,29.12,SSE,158,0.0,0.0,84,0.00,,,0.00,meteohub,2013-02-13 01:41:00,
2013-02-12 20:46:00,25.0,20.8,29.12,SSW,203,0.0,0.0,84,0.00,,,0.00,meteohub,2013-02-13 01:46:00,
2013-02-12 20:51:00,25.0,20.8,29.12,SSW,203,0.0,0.0,84,0.00,,,0.00,meteohub,2013-02-13 01:51:00,
2013-02-12 20:56:00,25.0,20.8,29.12,South,180,0.0,0.0,84,0.00,,,0.00,meteohub,2013-02-13 01:56:00,
2013-02-12 21:01:00,25.0,20.8,29.13,SW,225,0.0,0.0,84,0.00,,,0.00,meteohub,2013-02-13 02:01:00,
2013-02-12 21:06:00,25.0,20.8,29.13,SSW,203,0.0,0.0,84,0.00,,,0.00,meteohub,2013-02-13 02:06:00,
2013-02-12 21:11:00,25.0,20.8,29.13,SSW,203,2.0,7.0,84,0.00,,,0.00,meteohub,2013-02-13 02:11:00,
2013-02-12 21:16:00,25.0,20.8,29.12,SSW,203,4.0,7.0,84,0.00,,,0.00,meteohub,2013-02-13 02:16:00,
2013-02-12 21:21:00,25.0,20.8,29.12,SSE,158,4.0,7.0,84,0.00,,,0.00,meteohub,2013-02-13 02:21:00,
2013-02-12 21:58:00,25.2,20.7,29.11,SW,225,4.0,-999.0,83,0.00,,,0.00,meteohub,2013-02-13 02:58:00,
2013-02-12 22:03:00,25.2,20.7,29.11,SSW,203,4.0,-999.0,83,0.00,,,0.00,meteohub,2013-02-13 03:03:00,
2013-02-12 22:14:00,25.2,-99.9,28.33,North,-999,-999.0,-999.0,-999,-99.99,,,-99.99,meteobridge,2013-02-13 03:14:00,
2013-02-12 22:19:00,25.2,20.7,29.09,SSE,158,3.0,4.0,83,0.00,,,0.00,meteohub,2013-02-13 03:19:00,
2013-02-12 22:24:00,25.2,20.7,29.09,SSE,158,4.0,-999.0,83,0.00,,,0.00,meteohub,2013-02-13 03:24:00,
2013-02-12 22:29:00,25.2,20.7,29.09,SSE,158,4.0,4.0,83,0.00,,,0.00,meteohub,2013-02-13 03:29:00,
2013-02-12 22:34:00,25.2,20.7,29.09,SW,225,4.0,4.0,83,0.00,,,0.00,meteohub,2013-02-13 03:34:00,
2013-02-12 22:39:00,25.2,20.7,29.10,South,180,4.0,6.0,83,0.00,,,0.00,meteohub,2013-02-13 03:39:00,
2013-02-12 22:44:00,25.2,20.7,29.10,SSE,158,2.0,6.0,83,0.00,,,0.00,meteohub,2013-02-13 03:44:00,
2013-02-12 22:49:00,25.3,20.7,29.10,SSW,203,3.0,4.0,82,0.00,,,0.00,meteohub,2013-02-13 03:49:00,
2013-02-12 22:54:00,25.3,20.7,29.10,South,180,4.0,5.0,82,0.00,,,0.00,meteohub,2013-02-13 03:54:00,
2013-02-12 22:59:00,25.3,20.7,29.10,SW,225,3.0,6.0,82,0.00,,,0.00,meteohub,2013-02-13 03:59:00,
2013-02-12 23:04:00,25.3,20.8,29.10,SSW,203,3.0,6.0,83,0.00,,,0.00,meteohub,2013-02-13 04:04:00,
2013-02-12 23:09:00,25.3,20.8,29.10,South,180,2.0,6.0,83,0.00,,,0.00,meteohub,2013-02-13 04:09:00,
2013-02-12 23:14:00,25.3,20.8,29.10,SSE,158,3.0,4.0,83,0.00,,,0.00,meteohub,2013-02-13 04:14:00,
2013-02-12 23:19:00,25.3,20.8,29.10,South,180,3.0,4.0,83,0.00,,,0.00,meteohub,2013-02-13 04:19:00,
2013-02-12 23:24:00,25.3,20.8,29.10,SSW,203,5.0,5.0,83,0.00,,,0.00,meteohub,2013-02-13 04:24:00,
2013-02-12 23:29:00,25.5,21.0,29.10,SSW,203,4.0,4.0,83,0.00,,,0.00,meteohub,2013-02-13 04:29:00,
2013-02-12 23:34:00,25.3,20.8,29.10,SSW,203,3.0,6.0,83,0.00,,,0.00,meteohub,2013-02-13 04:34:00,
2013-02-12 23:39:00,25.3,20.8,29.09,SSE,158,0.0,6.0,83,0.00,,,0.00,meteohub,2013-02-13 04:39:00,
2013-02-12 23:44:00,25.3,20.8,29.09,ESE,113,2.0,6.0,83,0.00,,,0.00,meteohub,2013-02-13 04:44:00,
2013-02-12 23:49:00,25.2,20.7,29.09,SE,135,2.0,3.0,83,0.00,,,0.00,meteohub,2013-02-13 04:49:00,
2013-02-12 23:54:00,25.2,20.7,29.09,SSE,158,2.0,3.0,83,0.00,,,0.00,meteohub,2013-02-13 04:54:00,
2013-02-12 23:59:00,25.2,20.7,29.08,SSW,203,4.0,4.0,83,0.00,,,0.00,meteohub,2013-02-13 04:59:00,